createdAt,value
2022-10-18T00:00:20.043Z,101461.09
2022-10-18T00:00:52.156Z,101462.16
2022-10-18T00:01:24.312Z,101457.78
2022-10-18T00:01:59.696Z,101449.69
2022-10-18T00:02:31.925Z,101449.69
2022-10-18T00:03:04.260Z,101444.53
2022-10-18T00:03:39.768Z,101451.56
2022-10-18T00:04:11.899Z,101449.94
2022-10-18T00:04:43.987Z,101444.53
2022-10-18T00:05:18.784Z,101449.94
2022-10-18T00:05:51.203Z,101443.72
2022-10-18T00:06:23.329Z,101441.25
2022-10-18T00:06:57.965Z,101444.78
2022-10-18T00:07:30.248Z,101443.38
2022-10-18T00:08:03.120Z,101439.06
2022-10-18T00:08:38.165Z,101442.31
2022-10-18T00:09:10.287Z,101447.97
2022-10-18T00:09:44.998Z,101448.78
2022-10-18T00:10:20.014Z,101442.81
2022-10-18T00:10:52.173Z,101436.84
2022-10-18T00:11:24.590Z,101441.19
2022-10-18T00:11:59.902Z,101441.19
2022-10-18T00:12:33.441Z,101444.94
2022-10-18T00:13:05.541Z,101444.13
2022-10-18T00:13:40.516Z,101444.13
2022-10-18T00:14:12.734Z,101445.22
2022-10-18T00:14:44.839Z,101445.22
2022-10-18T00:15:19.871Z,101439.81
2022-10-18T00:15:53.935Z,101449.78
2022-10-18T00:16:26.013Z,101439.22
2022-10-18T00:16:58.407Z,101438.16
2022-10-18T00:17:33.229Z,101439.22
2022-10-18T00:18:05.495Z,101442.16
2022-10-18T00:18:37.682Z,101437.56
2022-10-18T00:19:12.356Z,101440.28
2022-10-18T00:19:44.535Z,101432.44
2022-10-18T00:20:16.954Z,101435.97
2022-10-18T00:21:00.697Z,101436.19
2022-10-18T00:21:32.858Z,101428.56
2022-10-18T00:22:05.065Z,101435.56
2022-10-18T00:22:41.130Z,101432.88
2022-10-18T00:23:13.248Z,101429.34
2022-10-18T00:23:47.746Z,101432.03
2022-10-18T00:24:22.562Z,101427.97
2022-10-18T00:24:57.334Z,101429.63
2022-10-18T00:25:29.483Z,101423.38
2022-10-18T00:26:10.777Z,101427.97
2022-10-18T00:26:42.990Z,101431.16
2022-10-18T00:27:15.271Z,101424.69
2022-10-18T00:27:50.021Z,101429.03
2022-10-18T00:28:22.098Z,101436.31
2022-10-18T00:28:56.580Z,101428.19
2022-10-18T00:29:31.285Z,101424.94
2022-10-18T00:30:03.870Z,101427.66
2022-10-18T00:30:36.095Z,101428.47
2022-10-18T00:31:16.716Z,101427.66
2022-10-18T00:31:51.443Z,101426.25
2022-10-18T00:32:23.860Z,101426.25
2022-10-18T00:32:55.991Z,101423.53
2022-10-18T00:33:30.634Z,101429.75
2022-10-18T00:34:05.303Z,101424.34
2022-10-18T00:34:41.022Z,101422.72
2022-10-18T00:35:13.163Z,101424.63
2022-10-18T00:35:45.267Z,101422.72
2022-10-18T00:36:20.363Z,101423.53
2022-10-18T00:36:52.448Z,101417.56
2022-10-18T00:37:24.653Z,101425.41
2022-10-18T00:37:59.302Z,101422.72
2022-10-18T00:38:32.519Z,101415.69
2022-10-18T00:39:06.238Z,101421.94
2022-10-18T00:39:41.240Z,101415.94
2022-10-18T00:40:16.035Z,101422.16
2022-10-18T00:40:48.126Z,101418.63
2022-10-18T00:41:25.967Z,101414.06
2022-10-18T00:41:58.246Z,101412.69
2022-10-18T00:42:35.096Z,101414.28
2022-10-18T00:43:17.617Z,101413.72
2022-10-18T00:43:55.226Z,101419.59
2022-10-18T00:44:57.409Z,101416.34
2022-10-18T00:45:32.321Z,101415.19
2022-10-18T00:46:04.654Z,101413.06
2022-10-18T00:46:38.533Z,101412.00
2022-10-18T00:47:13.370Z,101417.41
2022-10-18T00:47:52.040Z,101421.97
2022-10-18T00:48:24.373Z,101415.19
2022-10-18T00:48:58.844Z,101421.16
2022-10-18T00:49:36.837Z,101421.16
2022-10-18T00:50:10.506Z,101424.13
2022-10-18T00:50:43.302Z,101417.91
2022-10-18T00:51:19.685Z,101421.16
2022-10-18T00:51:59.287Z,101408.16
2022-10-18T00:52:35.440Z,101413.78
2022-10-18T00:53:15.816Z,101419.19
2022-10-18T00:53:48.541Z,101413.97
2022-10-18T00:54:21.556Z,101416.41
2022-10-18T00:54:58.220Z,101420.75
2022-10-18T00:55:34.440Z,101413.47
2022-10-18T00:56:07.581Z,101409.72
2022-10-18T00:56:44.863Z,101412.41
2022-10-18T00:57:17.695Z,101413.47
2022-10-18T00:57:50.519Z,101415.09
2022-10-18T00:58:25.230Z,101416.16
2022-10-18T00:58:57.896Z,101413.22
2022-10-18T00:59:30.540Z,101415.94
2022-10-18T01:00:09.704Z,101413.22
2022-10-18T01:00:41.993Z,101411.59
2022-10-18T01:01:14.121Z,101410.75
2022-10-18T01:01:49.142Z,101415.09
2022-10-18T01:02:22.113Z,101412.41
2022-10-18T01:02:56.815Z,101408.88
2022-10-18T01:03:28.943Z,101410.75
2022-10-18T01:04:01.470Z,101410.75
2022-10-18T01:04:36.785Z,101412.41
2022-10-18T01:05:11.626Z,101409.72
2022-10-18T01:05:50.448Z,101408.06
2022-10-18T01:06:23.648Z,101405.38
2022-10-18T01:07:01.373Z,101408.88
2022-10-18T01:08:00.768Z,101405.84
2022-10-18T01:08:57.057Z,101402.84
2022-10-18T01:09:38.199Z,101403.88
2022-10-18T01:10:27.923Z,101394.97
2022-10-18T01:11:23.465Z,101403.31
2022-10-18T01:12:09.333Z,101390.31
2022-10-18T01:12:56.535Z,101394.06
2022-10-18T01:13:39.735Z,101399.44
2022-10-18T01:14:29.260Z,101395.09
2022-10-18T01:15:10.742Z,101394.31
2022-10-18T01:15:54.522Z,101398.06
2022-10-18T01:16:36.146Z,101393.72
2022-10-18T01:17:15.501Z,101394.56
2022-10-18T01:17:56.351Z,101386.22
2022-10-18T01:18:37.514Z,101392.69
2022-10-18T01:19:30.558Z,101395.38
2022-10-18T01:20:36.996Z,101391.53
2022-10-18T01:21:21.472Z,101388.47
2022-10-18T01:22:00.922Z,101387.19
2022-10-18T01:22:40.722Z,101379.91
2022-10-18T01:23:19.603Z,101381.78
2022-10-18T01:24:15.699Z,101383.06
2022-10-18T01:25:04.872Z,101383.06
2022-10-18T01:25:47.334Z,101383.34
2022-10-18T01:26:41.818Z,101377.13
2022-10-18T01:27:29.067Z,101380.03
2022-10-18T01:28:12.203Z,101380.03
2022-10-18T01:28:58.382Z,101386.25
2022-10-18T01:29:38.477Z,101380.03
2022-10-18T01:30:45.885Z,101375.16
2022-10-18T01:31:22.454Z,101383.25
2022-10-18T01:31:59.704Z,101377.59
2022-10-18T01:32:40.393Z,101381.09
2022-10-18T01:33:21.398Z,101383.00
2022-10-18T01:34:58.330Z,101374.56
2022-10-18T01:35:36.455Z,101369.75
2022-10-18T01:36:17.715Z,101371.38
2022-10-18T01:36:53.568Z,101374.09
2022-10-18T01:37:28.105Z,101367.59
2022-10-18T01:38:08.117Z,101367.59
2022-10-18T01:38:42.752Z,101368.69
2022-10-18T01:39:24.011Z,101364.13
2022-10-18T01:39:58.867Z,101368.69
2022-10-18T01:40:32.197Z,101361.66
2022-10-18T01:41:13.284Z,101369.50
2022-10-18T01:41:51.425Z,101362.47
2022-10-18T01:42:27.478Z,101362.72
2022-10-18T01:43:01.318Z,101362.72
2022-10-18T01:43:39.120Z,101368.94
2022-10-18T01:44:16.169Z,101364.59
2022-10-18T01:44:51.109Z,101368.94
2022-10-18T01:45:27.578Z,101365.41
2022-10-18T01:46:04.472Z,101367.03
2022-10-18T01:46:40.047Z,101360.00
2022-10-18T01:47:16.882Z,101365.16
2022-10-18T01:47:50.551Z,101363.28
2022-10-18T01:48:23.810Z,101364.13
2022-10-18T01:48:59.732Z,101363.03
2022-10-18T01:49:33.505Z,101358.47
2022-10-18T01:50:07.379Z,101364.91
2022-10-18T01:50:42.191Z,101361.16
2022-10-18T01:51:14.264Z,101361.97
2022-10-18T01:51:46.411Z,101358.22
2022-10-18T01:52:21.074Z,101360.69
2022-10-18T01:52:53.187Z,101355.28
2022-10-18T01:53:29.566Z,101358.56
2022-10-18T01:54:04.607Z,101357.16
2022-10-18T01:54:39.301Z,101359.88
2022-10-18T01:55:11.716Z,101359.03
2022-10-18T01:55:52.299Z,101353.66
2022-10-18T01:56:32.759Z,101355.75
2022-10-18T01:57:12.704Z,101349.31
2022-10-18T01:57:57.077Z,101354.13
2022-10-18T01:58:37.075Z,101354.13
2022-10-18T01:59:24.440Z,101353.31
2022-10-18T02:00:04.607Z,101357.91
2022-10-18T02:00:44.476Z,101346.50
2022-10-18T02:01:29.928Z,101346.28
2022-10-18T02:02:12.291Z,101350.84
2022-10-18T02:02:47.996Z,101353.31
2022-10-18T02:03:24.167Z,101340.88
2022-10-18T02:04:07.407Z,101350.63
2022-10-18T02:04:46.146Z,101344.41
2022-10-18T02:05:24.823Z,101339.00
2022-10-18T02:06:05.396Z,101339.00
2022-10-18T02:06:43.543Z,101347.94
2022-10-18T02:07:27.983Z,101348.97
2022-10-18T02:08:22.846Z,101340.28
2022-10-18T02:09:01.085Z,101342.44
2022-10-18T02:09:39.585Z,101335.16
2022-10-18T02:10:19.814Z,101338.66
2022-10-18T02:10:55.949Z,101340.56
2022-10-18T02:11:30.770Z,101338.66
2022-10-18T02:12:06.802Z,101339.47
2022-10-18T02:12:42.819Z,101343.00
2022-10-18T02:13:18.038Z,101343.81
2022-10-18T02:13:56.765Z,101341.94
2022-10-18T02:14:30.978Z,101340.06
2022-10-18T02:15:07.594Z,101337.38
2022-10-18T02:15:45.443Z,101341.72
2022-10-18T02:16:23.764Z,101332.53
2022-10-18T02:16:59.138Z,101337.91
2022-10-18T02:17:34.931Z,101341.44
2022-10-18T02:18:16.728Z,101344.97
2022-10-18T02:18:55.702Z,101339.56
2022-10-18T02:19:34.302Z,101327.94
2022-10-18T02:20:09.221Z,101333.34
2022-10-18T02:20:42.301Z,101332.28
2022-10-18T02:21:20.903Z,101327.72
2022-10-18T02:21:54.563Z,101329.59
2022-10-18T02:22:32.212Z,101325.00
2022-10-18T02:23:09.919Z,101334.16
2022-10-18T02:23:45.096Z,101329.81
2022-10-18T02:24:18.745Z,101331.47
2022-10-18T02:24:57.759Z,101327.94
2022-10-18T02:25:34.005Z,101328.78
2022-10-18T02:26:07.003Z,101328.78
2022-10-18T02:26:42.320Z,101324.19
2022-10-18T02:27:14.731Z,101315.28
2022-10-18T02:27:47.242Z,101323.97
2022-10-18T02:28:22.200Z,101328.31
2022-10-18T02:28:54.453Z,101325.84
2022-10-18T02:29:26.746Z,101326.66
2022-10-18T02:30:01.915Z,101322.91
2022-10-18T02:30:41.322Z,101322.91
2022-10-18T02:31:19.572Z,101318.56
2022-10-18T02:32:04.284Z,101325.00
2022-10-18T02:32:41.285Z,101322.56
2022-10-18T02:33:18.129Z,101322.56
2022-10-18T02:33:56.635Z,101319.03
2022-10-18T02:34:35.532Z,101324.44
2022-10-18T02:35:16.559Z,101320.94
2022-10-18T02:35:56.882Z,101325.50
2022-10-18T02:36:33.683Z,101323.03
2022-10-18T02:37:08.503Z,101325.75
2022-10-18T02:37:42.212Z,101321.16
2022-10-18T02:38:16.431Z,101322.81
2022-10-18T02:38:56.270Z,101322.81
2022-10-18T02:39:31.439Z,101324.09
2022-10-18T02:40:05.393Z,101322.22
2022-10-18T02:40:40.066Z,101326.56
2022-10-18T02:41:12.412Z,101330.09
2022-10-18T02:41:44.694Z,101325.50
2022-10-18T02:42:19.428Z,101320.13
2022-10-18T02:42:55.972Z,101316.34
2022-10-18T02:43:28.190Z,101325.50
2022-10-18T02:44:02.937Z,101320.66
2022-10-18T02:44:35.302Z,101317.16
2022-10-18T02:45:08.103Z,101321.50
2022-10-18T02:45:43.050Z,101325.25
2022-10-18T02:46:15.224Z,101322.56
2022-10-18T02:46:48.238Z,101323.38
2022-10-18T02:47:25.527Z,101315.28
2022-10-18T02:47:57.689Z,101321.72
2022-10-18T02:48:29.859Z,101313.63
2022-10-18T02:49:04.561Z,101320.66
2022-10-18T02:49:36.683Z,101319.84
2022-10-18T02:50:09.727Z,101317.97
2022-10-18T02:50:44.397Z,101317.97
2022-10-18T02:51:17.029Z,101325.00
2022-10-18T02:51:49.268Z,101325.84
2022-10-18T02:52:23.998Z,101313.41
2022-10-18T02:52:56.139Z,101315.28
2022-10-18T02:53:28.243Z,101315.28
2022-10-18T02:54:02.947Z,101316.59
2022-10-18T02:54:35.112Z,101308.50
2022-10-18T02:55:08.297Z,101314.72
2022-10-18T02:55:42.990Z,101315.78
2022-10-18T02:56:15.089Z,101307.91
2022-10-18T02:56:47.218Z,101306.03
2022-10-18T02:57:22.080Z,101314.13
2022-10-18T02:57:54.136Z,101311.44
2022-10-18T02:58:26.263Z,101304.38
2022-10-18T02:59:01.504Z,101302.50
2022-10-18T02:59:33.575Z,101308.19
2022-10-18T03:00:09.538Z,101305.22
2022-10-18T03:00:41.661Z,101309.22
2022-10-18T03:01:13.887Z,101299.50
2022-10-18T03:01:48.634Z,101296.78
2022-10-18T03:02:23.358Z,101297.84
2022-10-18T03:02:58.003Z,101296.25
2022-10-18T03:03:30.215Z,101298.13
2022-10-18T03:04:02.888Z,101297.03
2022-10-18T03:04:37.633Z,101293.53
2022-10-18T03:05:09.744Z,101292.72
2022-10-18T03:05:41.856Z,101285.69
2022-10-18T03:06:16.527Z,101291.91
2022-10-18T03:06:48.690Z,101292.13
2022-10-18T03:07:20.870Z,101292.94
2022-10-18T03:07:55.508Z,101287.78
2022-10-18T03:08:27.622Z,101292.38
2022-10-18T03:08:59.930Z,101278.88
2022-10-18T03:09:34.596Z,101286.97
2022-10-18T03:10:07.994Z,101289.66
2022-10-18T03:10:40.064Z,101287.22
2022-10-18T03:11:14.735Z,101290.75
2022-10-18T03:11:46.838Z,101282.66
2022-10-18T03:12:18.919Z,101281.84
2022-10-18T03:12:53.597Z,101281.00
2022-10-18T03:13:25.826Z,101282.06
2022-10-18T03:13:57.930Z,101284.75
2022-10-18T03:14:32.626Z,101280.19
2022-10-18T03:15:05.827Z,101283.13
2022-10-18T03:15:37.980Z,101279.59
2022-10-18T03:16:12.801Z,101287.69
2022-10-18T03:16:44.891Z,101278.00
2022-10-18T03:17:16.997Z,101280.69
2022-10-18T03:17:54.271Z,101277.16
2022-10-18T03:18:26.942Z,101281.97
2022-10-18T03:18:59.027Z,101281.97
2022-10-18T03:19:33.835Z,101280.34
2022-10-18T03:20:07.102Z,101280.34
2022-10-18T03:20:39.193Z,101276.03
2022-10-18T03:21:14.133Z,101276.84
2022-10-18T03:21:46.236Z,101275.19
2022-10-18T03:22:18.404Z,101278.72
2022-10-18T03:22:53.129Z,101279.78
2022-10-18T03:23:25.360Z,101276.25
2022-10-18T03:23:58.742Z,101280.84
2022-10-18T03:24:30.869Z,101280.84
2022-10-18T03:25:05.704Z,101273.78
2022-10-18T03:25:39.599Z,101276.50
2022-10-18T03:26:13.749Z,101275.13
2022-10-18T03:26:48.396Z,101281.31
2022-10-18T03:27:20.569Z,101274.28
2022-10-18T03:27:52.771Z,101277.81
2022-10-18T03:28:27.564Z,101282.38
2022-10-18T03:28:59.763Z,101280.75
2022-10-18T03:29:31.895Z,101269.13
2022-10-18T03:30:07.115Z,101279.91
2022-10-18T03:30:39.201Z,101278.31
2022-10-18T03:31:11.274Z,101278.31
2022-10-18T03:31:46.060Z,101274.78
2022-10-18T03:32:18.121Z,101282.06
2022-10-18T03:32:54.323Z,101275.03
2022-10-18T03:33:26.407Z,101276.91
2022-10-18T03:34:01.070Z,101275.25
2022-10-18T03:34:33.141Z,101279.03
2022-10-18T03:35:06.111Z,101273.63
2022-10-18T03:35:40.779Z,101273.03
2022-10-18T03:36:15.507Z,101274.94
2022-10-18T03:36:47.691Z,101276.81
2022-10-18T03:37:19.769Z,101277.63
2022-10-18T03:37:54.607Z,101281.13
2022-10-18T03:38:27.067Z,101270.84
2022-10-18T03:38:59.159Z,101274.38
2022-10-18T03:39:33.855Z,101274.38
2022-10-18T03:40:07.933Z,101275.41
2022-10-18T03:40:40.080Z,101278.94
2022-10-18T03:41:14.775Z,101277.28
2022-10-18T03:41:46.888Z,101271.91
2022-10-18T03:42:18.968Z,101280.81
2022-10-18T03:42:53.644Z,101279.16
2022-10-18T03:43:26.106Z,101272.97
2022-10-18T03:43:58.233Z,101278.34
2022-10-18T03:44:32.933Z,101274.84
2022-10-18T03:45:06.058Z,101282.91
2022-10-18T03:45:38.165Z,101272.97
2022-10-18T03:46:12.894Z,101271.31
2022-10-18T03:46:44.986Z,101272.97
2022-10-18T03:47:17.093Z,101274.00
2022-10-18T03:47:51.779Z,101272.97
2022-10-18T03:48:26.542Z,101277.53
2022-10-18T03:48:58.631Z,101270.53
2022-10-18T03:50:06.061Z,101272.41
2022-10-18T03:50:38.197Z,101261.59
2022-10-18T03:51:13.011Z,101255.41
2022-10-18T03:51:45.080Z,101275.09
2022-10-18T03:52:17.233Z,101263.47
2022-10-18T03:52:51.959Z,101266.19
2022-10-18T03:53:24.151Z,101269.09
2022-10-18T03:53:56.222Z,101268.06
2022-10-18T03:54:30.923Z,101262.66
2022-10-18T03:55:03.221Z,101261.84
2022-10-18T03:55:35.325Z,101263.72
2022-10-18T03:56:07.568Z,101267.22
2022-10-18T03:56:42.290Z,101267.47
2022-10-18T03:57:14.450Z,101263.94
2022-10-18T03:57:46.593Z,101265.84
2022-10-18T03:58:21.301Z,101261.25
2022-10-18T03:58:53.435Z,101264.22
2022-10-18T03:59:25.544Z,101266.91
2022-10-18T04:00:00.196Z,101260.47
2022-10-18T04:00:32.423Z,101251.78
2022-10-18T04:01:04.545Z,101258.22
2022-10-18T04:01:39.206Z,101259.06
2022-10-18T04:02:11.338Z,101268.19
2022-10-18T04:02:43.463Z,101260.09
2022-10-18T04:03:18.331Z,101256.59
2022-10-18T04:03:52.995Z,101256.84
2022-10-18T04:04:25.080Z,101246.88
2022-10-18T04:04:59.970Z,101248.50
2022-10-18T04:05:32.065Z,101254.16
2022-10-18T04:06:04.491Z,101247.72
2022-10-18T04:06:39.163Z,101248.75
2022-10-18T04:07:11.251Z,101249.00
2022-10-18T04:07:43.346Z,101251.69
2022-10-18T04:08:18.796Z,101247.34
2022-10-18T04:08:50.970Z,101246.53
2022-10-18T04:09:23.099Z,101250.53
2022-10-18T04:09:57.768Z,101240.81
2022-10-18T04:10:29.837Z,101249.97
2022-10-18T04:11:05.599Z,101239.44
2022-10-18T04:11:40.273Z,101240.47
2022-10-18T04:12:12.373Z,101246.91
2022-10-18T04:12:44.507Z,101239.09
2022-10-18T04:13:19.158Z,101240.72
2022-10-18T04:13:51.265Z,101249.06
2022-10-18T04:14:23.398Z,101242.03
2022-10-18T04:14:58.093Z,101239.31
2022-10-18T04:15:30.197Z,101239.31
2022-10-18T04:16:02.323Z,101241.19
2022-10-18T04:17:29.252Z,101233.50
2022-10-18T04:18:04.516Z,101241.59
2022-10-18T04:18:36.588Z,101238.91
2022-10-18T04:19:11.250Z,101234.53
2022-10-18T04:19:46.049Z,101234.53
2022-10-18T04:20:18.341Z,101240.16
2022-10-18T04:20:50.423Z,101244.50
2022-10-18T04:21:25.075Z,101231.84
2022-10-18T04:21:57.162Z,101239.34
2022-10-18T04:22:29.393Z,101240.97
2022-10-18T04:23:04.065Z,101234.19
2022-10-18T04:23:38.674Z,101238.78
2022-10-18T04:24:11.177Z,101236.06
2022-10-18T04:24:45.894Z,101231.72
2022-10-18T04:25:18.315Z,101233.88
2022-10-18T04:25:50.914Z,101236.56
2022-10-18T04:26:25.673Z,101230.34
2022-10-18T04:26:57.870Z,101238.44
2022-10-18T04:27:30.268Z,101229.53
2022-10-18T04:28:05.130Z,101235.97
2022-10-18T04:28:40.164Z,101227.88
2022-10-18T04:29:12.565Z,101230.84
2022-10-18T04:29:47.350Z,101235.16
2022-10-18T04:30:19.601Z,101233.53
2022-10-18T04:30:52.192Z,101232.72
2022-10-18T04:31:26.872Z,101236.22
2022-10-18T04:31:58.958Z,101233.53
2022-10-18T04:32:31.253Z,101230.03
2022-10-18T04:33:06.001Z,101229.75
2022-10-18T04:33:38.812Z,101224.63
2022-10-18T04:34:13.779Z,101225.47
2022-10-18T04:34:48.559Z,101226.50
2022-10-18T04:35:24.502Z,101225.47
2022-10-18T04:35:56.649Z,101224.63
2022-10-18T04:36:31.363Z,101226.25
2022-10-18T04:37:03.494Z,101224.63
2022-10-18T04:37:36.040Z,101228.94
2022-10-18T04:38:10.737Z,101227.31
2022-10-18T04:38:42.810Z,101221.94
2022-10-18T04:39:14.897Z,101223.00
2022-10-18T04:39:52.723Z,101218.41
2022-10-18T04:40:26.052Z,101223.00
2022-10-18T04:40:58.104Z,101220.28
2022-10-18T04:41:32.830Z,101223.00
2022-10-18T04:42:05.086Z,101222.16
2022-10-18T04:42:37.267Z,101218.66
2022-10-18T04:43:12.142Z,101221.13
2022-10-18T04:44:36.255Z,101213.97
2022-10-18T04:45:12.016Z,101216.44
2022-10-18T04:45:45.254Z,101207.53
2022-10-18T04:46:17.416Z,101211.06
2022-10-18T04:46:49.510Z,101208.91
2022-10-18T04:47:24.177Z,101212.69
2022-10-18T04:47:56.330Z,101207.31
2022-10-18T04:48:28.426Z,101203.53
2022-10-18T04:49:03.511Z,101205.66
2022-10-18T04:49:38.206Z,101204.84
2022-10-18T04:50:10.465Z,101205.06
2022-10-18T04:50:45.165Z,101201.34
2022-10-18T04:51:19.593Z,101199.69
2022-10-18T04:51:51.664Z,101207.53
2022-10-18T04:52:26.492Z,101198.63
2022-10-18T04:52:58.750Z,101204.03
2022-10-18T04:53:30.843Z,101204.03
2022-10-18T04:54:05.749Z,101200.50
2022-10-18T04:54:38.327Z,101202.38
2022-10-18T04:55:10.840Z,101199.47
2022-10-18T04:55:47.015Z,101199.22
2022-10-18T04:56:19.600Z,101193.25
2022-10-18T04:56:51.660Z,101196.53
2022-10-18T04:57:26.350Z,101196.75
2022-10-18T04:57:58.443Z,101196.53
2022-10-18T04:58:30.580Z,101194.06
2022-10-18T04:59:05.246Z,101198.63
2022-10-18T04:59:37.549Z,101198.63
2022-10-18T05:00:10.413Z,101201.34
2022-10-18T05:00:45.386Z,101202.38
2022-10-18T05:01:19.131Z,101193.25
2022-10-18T05:01:51.583Z,101191.88
2022-10-18T05:02:26.518Z,101193.75
2022-10-18T05:02:59.016Z,101194.78
2022-10-18T05:03:31.402Z,101194.78
2022-10-18T05:04:06.264Z,101197.47
2022-10-18T05:04:41.070Z,101194.78
2022-10-18T05:05:14.288Z,101199.34
2022-10-18T05:06:01.295Z,101188.81
2022-10-18T05:06:34.431Z,101192.81
2022-10-18T05:07:06.758Z,101199.84
2022-10-18T05:07:41.505Z,101193.63
2022-10-18T05:08:14.028Z,101189.31
2022-10-18T05:08:46.210Z,101190.34
2022-10-18T05:09:24.616Z,101193.03
2022-10-18T05:09:56.754Z,101197.88
2022-10-18T05:10:28.822Z,101196.00
2022-10-18T05:11:03.971Z,101186.00
2022-10-18T05:11:36.110Z,101193.31
2022-10-18T05:12:08.247Z,101185.22
2022-10-18T05:12:43.831Z,101197.06
2022-10-18T05:13:16.127Z,101199.47
2022-10-18T05:13:51.061Z,101191.91
2022-10-18T05:14:23.256Z,101193.53
2022-10-18T05:14:56.814Z,101193.53
2022-10-18T05:15:31.653Z,101190.84
2022-10-18T05:16:04.156Z,101192.72
2022-10-18T05:16:36.557Z,101196.22
2022-10-18T05:17:11.520Z,101200.56
2022-10-18T05:17:43.595Z,101197.88
2022-10-18T05:18:15.998Z,101190.84
2022-10-18T05:18:50.791Z,101197.88
2022-10-18T05:19:22.906Z,101203.25
2022-10-18T05:19:57.770Z,101205.97
2022-10-18T05:20:32.758Z,101193.53
2022-10-18T05:21:05.343Z,101202.44
2022-10-18T05:21:37.643Z,101198.94
2022-10-18T05:22:12.351Z,101193.53
2022-10-18T05:22:44.554Z,101197.28
2022-10-18T05:23:16.690Z,101196.47
2022-10-18T05:23:51.448Z,101200.22
2022-10-18T05:24:26.943Z,101203.72
2022-10-18T05:24:59.976Z,101201.28
2022-10-18T05:25:34.656Z,101202.09
2022-10-18T05:26:07.645Z,101203.97
2022-10-18T05:26:39.889Z,101197.78
2022-10-18T05:27:14.572Z,101195.06
2022-10-18T05:27:46.674Z,101193.44
2022-10-18T05:28:38.699Z,101196.13
2022-10-18T05:29:13.722Z,101202.00
2022-10-18T05:29:46.210Z,101207.13
2022-10-18T05:30:18.535Z,101202.56
2022-10-18T05:30:53.222Z,101199.88
2022-10-18T05:31:25.363Z,101196.34
2022-10-18T05:32:00.223Z,101198.25
2022-10-18T05:32:32.622Z,101193.66
2022-10-18T05:33:05.412Z,101193.66
2022-10-18T05:33:40.389Z,101209.59
2022-10-18T05:34:12.483Z,101203.38
2022-10-18T05:34:44.707Z,101204.44
2022-10-18T05:35:21.946Z,101201.50
2022-10-18T05:35:54.185Z,101197.19
2022-10-18T05:36:26.553Z,101210.66
2022-10-18T05:37:02.189Z,101193.44
2022-10-18T05:37:34.298Z,101211.47
2022-10-18T05:38:06.569Z,101209.38
2022-10-18T05:38:43.267Z,101202.34
2022-10-18T05:39:15.634Z,101207.50
2022-10-18T05:39:47.993Z,101212.63
2022-10-18T05:40:22.724Z,101219.66
2022-10-18T05:40:54.835Z,101212.63
2022-10-18T05:41:26.980Z,101214.03
2022-10-18T05:42:02.496Z,101212.97
2022-10-18T05:42:34.720Z,101213.78
2022-10-18T05:43:06.967Z,101211.69
2022-10-18T05:43:41.896Z,101213.31
2022-10-18T05:44:14.039Z,101217.41
2022-10-18T05:44:49.123Z,101212.00
2022-10-18T05:45:21.303Z,101219.03
2022-10-18T05:45:53.373Z,101214.47
2022-10-18T05:46:28.096Z,101217.72
2022-10-18T05:47:00.195Z,101217.72
2022-10-18T05:47:32.489Z,101213.97
2022-10-18T05:48:09.425Z,101218.31
2022-10-18T05:48:41.551Z,101217.50
2022-10-18T05:49:14.173Z,101211.06
2022-10-18T05:49:49.217Z,101216.44
2022-10-18T05:50:23.883Z,101215.41
2022-10-18T05:50:58.504Z,101214.31
2022-10-18T05:51:33.478Z,101212.94
2022-10-18T05:52:06.151Z,101215.41
2022-10-18T05:52:38.327Z,101211.63
2022-10-18T05:53:12.581Z,101210.56
2022-10-18T05:53:59.372Z,101211.06
2022-10-18T05:54:31.599Z,101215.41
2022-10-18T05:55:04.268Z,101211.63
2022-10-18T05:55:39.086Z,101214.09
2022-10-18T05:56:12.141Z,101214.09
2022-10-18T05:56:46.837Z,101216.78
2022-10-18T05:57:18.948Z,101211.97
2022-10-18T05:57:51.234Z,101210.06
2022-10-18T05:58:25.896Z,101205.50
2022-10-18T05:58:58.150Z,101212.53
2022-10-18T05:59:30.298Z,101211.50
2022-10-18T06:00:05.522Z,101217.44
2022-10-18T06:00:43.959Z,101215.25
2022-10-18T06:01:16.074Z,101214.75
2022-10-18T06:01:50.736Z,101215.34
2022-10-18T06:02:22.950Z,101212.63
2022-10-18T06:02:59.433Z,101211.59
2022-10-18T11:50:26.250Z,100797.84
2022-10-18T11:51:04.497Z,100787.56
2022-10-18T11:52:07.765Z,100787.56
2022-10-18T11:52:59.095Z,100787.59
2022-10-18T11:53:34.725Z,100776.53
2022-10-18T11:54:29.539Z,100773.34
2022-10-18T11:55:19.292Z,100776.56
2022-10-18T11:56:04.914Z,100778.16
2022-10-18T11:56:43.042Z,100773.75
2022-10-18T11:57:34.706Z,100778.94
2022-10-18T11:58:22.035Z,100780.13
2022-10-18T11:59:21.377Z,100769.38
2022-10-18T12:00:00.758Z,100765.03
2022-10-18T12:00:49.328Z,100765.84
2022-10-18T12:01:29.966Z,100765.44
2022-10-18T12:02:32.285Z,100765.06
2022-10-18T12:03:15.928Z,100752.31
2022-10-18T12:04:03.233Z,100773.00
2022-10-18T12:04:49.041Z,100757.91
2022-10-18T12:05:40.785Z,100760.69
2022-10-18T12:06:17.435Z,100755.53
2022-10-18T12:06:57.507Z,100757.50
2022-10-18T12:07:34.176Z,100761.06
2022-10-18T12:08:12.634Z,100751.91
2022-10-18T12:08:49.975Z,100753.50
2022-10-18T12:09:26.627Z,100746.31
2022-10-18T12:10:02.563Z,100732.38
2022-10-18T12:10:52.753Z,100741.94
2022-10-18T12:11:35.977Z,100745.13
2022-10-18T12:12:12.795Z,100739.56
2022-10-18T12:12:53.955Z,100737.56
2022-10-18T12:13:33.460Z,100743.94
2022-10-18T12:14:16.790Z,100734.78
2022-10-18T12:14:53.517Z,100743.53
2022-10-18T12:15:27.857Z,100726.00
2022-10-18T12:16:05.042Z,100729.97
2022-10-18T12:16:51.015Z,100733.97
2022-10-18T12:17:47.512Z,100730.78
2022-10-18T12:18:26.013Z,100733.19
2022-10-18T12:19:04.226Z,100751.47
2022-10-18T12:19:36.797Z,100746.72
2022-10-18T12:20:17.404Z,100743.13
2022-10-18T12:20:58.279Z,100740.66
2022-10-18T12:21:34.445Z,100721.97
2022-10-18T12:22:17.345Z,100716.78
2022-10-18T12:22:56.687Z,100722.34
2022-10-18T12:23:40.969Z,100725.94
2022-10-18T12:24:18.837Z,100719.56
2022-10-18T12:24:53.494Z,100723.56
2022-10-18T12:25:26.220Z,100722.34
2022-10-18T12:26:02.652Z,100722.75
2022-10-18T12:26:38.482Z,100716.78
2022-10-18T12:27:14.859Z,100717.16
2022-10-18T12:27:57.318Z,100717.16
2022-10-18T12:28:41.625Z,100712.03
2022-10-18T12:29:23.089Z,100709.63
2022-10-18T12:30:02.839Z,100726.69
2022-10-18T12:30:45.082Z,100705.63
2022-10-18T12:31:22.974Z,100706.44
2022-10-18T12:32:02.048Z,100719.56
2022-10-18T12:32:37.503Z,100708.03
2022-10-18T12:33:27.866Z,100699.69
2022-10-18T12:34:06.302Z,100714.84
2022-10-18T12:34:46.540Z,100702.13
2022-10-18T12:35:21.008Z,100706.91
2022-10-18T12:36:05.979Z,100696.56
2022-10-18T12:36:55.163Z,100692.56
2022-10-18T12:37:46.930Z,100697.75
2022-10-18T12:38:28.151Z,100695.38